sensor_id;sensor_type;location;lat;lon;timestamp;P1;durP1;ratioP1;P2;durP2;ratioP2
74749;SDS011;63269;53.330;-6.288;2023-02-01T00:01:42;8.90;;;3.03;;
74749;SDS011;63269;53.330;-6.288;2023-02-01T00:04:08;8.45;;;3.25;;
74749;SDS011;63269;53.330;-6.288;2023-02-01T00:06:33;8.27;;;2.75;;
74749;SDS011;63269;53.330;-6.288;2023-02-01T00:08:59;7.80;;;2.05;;
74749;SDS011;63269;53.330;-6.288;2023-02-01T00:11:24;10.30;;;3.03;;
74749;SDS011;63269;53.330;-6.288;2023-02-01T00:13:50;8.95;;;2.42;;
74749;SDS011;63269;53.330;-6.288;2023-02-01T00:16:17;9.25;;;2.92;;
74749;SDS011;63269;53.330;-6.288;2023-02-01T00:18:44;9.38;;;2.60;;
74749;SDS011;63269;53.330;-6.288;2023-02-01T00:21:12;9.23;;;2.67;;
74749;SDS011;63269;53.330;-6.288;2023-02-01T00:23:38;6.25;;;2.45;;
74749;SDS011;63269;53.330;-6.288;2023-02-01T00:26:05;8.35;;;2.70;;
74749;SDS011;63269;53.330;-6.288;2023-02-01T00:28:32;9.75;;;3.08;;
74749;SDS011;63269;53.330;-6.288;2023-02-01T00:30:58;8.35;;;2.53;;
74749;SDS011;63269;53.330;-6.288;2023-02-01T00:33:27;5.70;;;2.53;;
74749;SDS011;63269;53.330;-6.288;2023-02-01T00:35:57;6.80;;;2.08;;
74749;SDS011;63269;53.330;-6.288;2023-02-01T00:38:23;6.60;;;2.28;;
74749;SDS011;63269;53.330;-6.288;2023-02-01T00:40:49;5.18;;;1.85;;
74749;SDS011;63269;53.330;-6.288;2023-02-01T00:43:15;7.95;;;2.22;;
74749;SDS011;63269;53.330;-6.288;2023-02-01T00:45:40;6.43;;;2.20;;
74749;SDS011;63269;53.330;-6.288;2023-02-01T00:48:06;7.03;;;2.10;;
74749;SDS011;63269;53.330;-6.288;2023-02-01T00:50:31;6.72;;;2.42;;
74749;SDS011;63269;53.330;-6.288;2023-02-01T00:52:56;6.05;;;2.30;;
74749;SDS011;63269;53.330;-6.288;2023-02-01T00:55:24;7.65;;;2.40;;
74749;SDS011;63269;53.330;-6.288;2023-02-01T00:57:50;10.98;;;3.00;;
74749;SDS011;63269;53.330;-6.288;2023-02-01T01:00:15;8.57;;;2.22;;
74749;SDS011;63269;53.330;-6.288;2023-02-01T01:02:41;5.88;;;2.25;;
74749;SDS011;63269;53.330;-6.288;2023-02-01T01:05:07;7.28;;;2.40;;
74749;SDS011;63269;53.330;-6.288;2023-02-01T01:07:32;7.53;;;2.60;;
74749;SDS011;63269;53.330;-6.288;2023-02-01T01:09:58;7.07;;;2.45;;
74749;SDS011;63269;53.330;-6.288;2023-02-01T01:12:23;6.82;;;1.83;;
74749;SDS011;63269;53.330;-6.288;2023-02-01T01:14:49;6.65;;;2.47;;
74749;SDS011;63269;53.330;-6.288;2023-02-01T01:17:14;7.45;;;2.20;;
74749;SDS011;63269;53.330;-6.288;2023-02-01T01:19:41;6.40;;;2.05;;
74749;SDS011;63269;53.330;-6.288;2023-02-01T01:22:06;6.38;;;2.53;;
74749;SDS011;63269;53.330;-6.288;2023-02-01T01:24:32;5.45;;;2.47;;
74749;SDS011;63269;53.330;-6.288;2023-02-01T01:26:57;6.10;;;2.05;;
74749;SDS011;63269;53.330;-6.288;2023-02-01T01:29:22;5.90;;;2.20;;
74749;SDS011;63269;53.330;-6.288;2023-02-01T01:31:48;7.03;;;2.22;;
74749;SDS011;63269;53.330;-6.288;2023-02-01T01:34:13;6.85;;;2.00;;
74749;SDS011;63269;53.330;-6.288;2023-02-01T01:36:39;7.53;;;2.13;;
74749;SDS011;63269;53.330;-6.288;2023-02-01T01:39:04;6.53;;;1.80;;
74749;SDS011;63269;53.330;-6.288;2023-02-01T01:41:32;5.93;;;2.13;;
74749;SDS011;63269;53.330;-6.288;2023-02-01T01:44:02;5.60;;;1.83;;
74749;SDS011;63269;53.330;-6.288;2023-02-01T01:46:33;6.25;;;1.77;;
74749;SDS011;63269;53.330;-6.288;2023-02-01T01:51:25;6.88;;;2.33;;
74749;SDS011;63269;53.330;-6.288;2023-02-01T01:53:55;5.25;;;2.13;;
74749;SDS011;63269;53.330;-6.288;2023-02-01T01:56:28;5.18;;;1.58;;
74749;SDS011;63269;53.330;-6.288;2023-02-01T01:58:56;7.40;;;1.90;;
74749;SDS011;63269;53.330;-6.288;2023-02-01T02:01:22;6.82;;;2.50;;
74749;SDS011;63269;53.330;-6.288;2023-02-01T02:03:47;5.93;;;2.00;;
74749;SDS011;63269;53.330;-6.288;2023-02-01T02:06:20;5.80;;;2.05;;
74749;SDS011;63269;53.330;-6.288;2023-02-01T02:08:49;7.47;;;2.38;;
74749;SDS011;63269;53.330;-6.288;2023-02-01T02:11:16;4.97;;;2.10;;
74749;SDS011;63269;53.330;-6.288;2023-02-01T02:13:42;5.82;;;2.08;;
74749;SDS011;63269;53.330;-6.288;2023-02-01T02:25:52;5.30;;;1.92;;
74749;SDS011;63269;53.330;-6.288;2023-02-01T02:28:50;7.15;;;2.35;;
74749;SDS011;63269;53.330;-6.288;2023-02-01T02:34:19;5.82;;;1.70;;
74749;SDS011;63269;53.330;-6.288;2023-02-01T02:45:21;9.02;;;2.28;;
74749;SDS011;63269;53.330;-6.288;2023-02-01T02:48:18;7.38;;;2.60;;
74749;SDS011;63269;53.330;-6.288;2023-02-01T02:56:51;6.53;;;2.05;;
74749;SDS011;63269;53.330;-6.288;2023-02-01T02:59:37;4.85;;;2.17;;
74749;SDS011;63269;53.330;-6.288;2023-02-01T03:02:23;5.68;;;2.45;;
74749;SDS011;63269;53.330;-6.288;2023-02-01T03:05:10;6.95;;;2.10;;
74749;SDS011;63269;53.330;-6.288;2023-02-01T03:10:30;5.78;;;2.05;;
74749;SDS011;63269;53.330;-6.288;2023-02-01T03:13:02;9.35;;;2.28;;
74749;SDS011;63269;53.330;-6.288;2023-02-01T03:15:43;5.95;;;2.13;;
74749;SDS011;63269;53.330;-6.288;2023-02-01T03:20:59;5.95;;;1.95;;
74749;SDS011;63269;53.330;-6.288;2023-02-01T03:23:29;5.72;;;2.25;;
74749;SDS011;63269;53.330;-6.288;2023-02-01T03:25:58;7.57;;;3.05;;
74749;SDS011;63269;53.330;-6.288;2023-02-01T03:28:26;5.43;;;1.90;;
74749;SDS011;63269;53.330;-6.288;2023-02-01T03:30:54;7.10;;;2.75;;
74749;SDS011;63269;53.330;-6.288;2023-02-01T03:33:21;5.95;;;2.38;;
74749;SDS011;63269;53.330;-6.288;2023-02-01T03:38:22;8.05;;;2.40;;
74749;SDS011;63269;53.330;-6.288;2023-02-01T03:41:10;8.05;;;2.22;;
74749;SDS011;63269;53.330;-6.288;2023-02-01T03:44:11;7.30;;;2.25;;
74749;SDS011;63269;53.330;-6.288;2023-02-01T03:47:01;8.82;;;2.20;;
74749;SDS011;63269;53.330;-6.288;2023-02-01T03:49:34;6.85;;;2.22;;
74749;SDS011;63269;53.330;-6.288;2023-02-01T03:52:01;6.83;;;1.77;;
74749;SDS011;63269;53.330;-6.288;2023-02-01T03:54:28;5.15;;;1.75;;
74749;SDS011;63269;53.330;-6.288;2023-02-01T03:56:55;4.88;;;1.83;;
74749;SDS011;63269;53.330;-6.288;2023-02-01T03:59:24;6.05;;;2.05;;
74749;SDS011;63269;53.330;-6.288;2023-02-01T04:01:49;6.65;;;2.13;;
74749;SDS011;63269;53.330;-6.288;2023-02-01T04:04:15;6.82;;;1.67;;
74749;SDS011;63269;53.330;-6.288;2023-02-01T04:06:48;5.97;;;2.50;;
74749;SDS011;63269;53.330;-6.288;2023-02-01T04:09:14;4.55;;;1.77;;
74749;SDS011;63269;53.330;-6.288;2023-02-01T04:11:40;5.57;;;1.95;;
74749;SDS011;63269;53.330;-6.288;2023-02-01T04:14:05;6.03;;;1.75;;
74749;SDS011;63269;53.330;-6.288;2023-02-01T04:16:31;6.32;;;2.25;;
74749;SDS011;63269;53.330;-6.288;2023-02-01T04:18:57;8.57;;;2.30;;
74749;SDS011;63269;53.330;-6.288;2023-02-01T04:21:26;7.47;;;1.85;;
74749;SDS011;63269;53.330;-6.288;2023-02-01T04:23:52;5.40;;;2.25;;
74749;SDS011;63269;53.330;-6.288;2023-02-01T04:26:18;5.35;;;1.92;;
74749;SDS011;63269;53.330;-6.288;2023-02-01T04:28:44;5.18;;;2.20;;
74749;SDS011;63269;53.330;-6.288;2023-02-01T04:31:13;7.03;;;2.00;;
74749;SDS011;63269;53.330;-6.288;2023-02-01T04:33:41;9.43;;;1.83;;
74749;SDS011;63269;53.330;-6.288;2023-02-01T04:36:06;6.72;;;1.88;;
74749;SDS011;63269;53.330;-6.288;2023-02-01T04:38:32;7.63;;;2.40;;
74749;SDS011;63269;53.330;-6.288;2023-02-01T04:40:58;5.60;;;1.75;;
74749;SDS011;63269;53.330;-6.288;2023-02-01T04:43:24;6.75;;;2.15;;
74749;SDS011;63269;53.330;-6.288;2023-02-01T04:45:49;7.05;;;1.77;;
74749;SDS011;63269;53.330;-6.288;2023-02-01T04:48:18;7.70;;;2.10;;
74749;SDS011;63269;53.330;-6.288;2023-02-01T04:50:48;6.90;;;1.95;;
74749;SDS011;63269;53.330;-6.288;2023-02-01T04:53:14;8.50;;;2.53;;
74749;SDS011;63269;53.330;-6.288;2023-02-01T04:55:40;5.60;;;1.83;;
74749;SDS011;63269;53.330;-6.288;2023-02-01T04:58:05;5.82;;;2.08;;
74749;SDS011;63269;53.330;-6.288;2023-02-01T05:00:31;6.78;;;1.92;;
74749;SDS011;63269;53.330;-6.288;2023-02-01T05:02:56;9.38;;;2.53;;
74749;SDS011;63269;53.330;-6.288;2023-02-01T05:05:22;6.70;;;2.15;;
74749;SDS011;63269;53.330;-6.288;2023-02-01T05:07:47;7.78;;;2.20;;
74749;SDS011;63269;53.330;-6.288;2023-02-01T05:10:13;6.50;;;2.33;;
74749;SDS011;63269;53.330;-6.288;2023-02-01T05:12:38;5.90;;;1.77;;
74749;SDS011;63269;53.330;-6.288;2023-02-01T05:15:22;7.68;;;1.95;;
74749;SDS011;63269;53.330;-6.288;2023-02-01T05:17:47;4.47;;;1.85;;
74749;SDS011;63269;53.330;-6.288;2023-02-01T05:20:13;7.55;;;2.28;;
74749;SDS011;63269;53.330;-6.288;2023-02-01T05:22:38;6.05;;;1.75;;
74749;SDS011;63269;53.330;-6.288;2023-02-01T05:25:04;10.02;;;2.40;;
74749;SDS011;63269;53.330;-6.288;2023-02-01T05:27:30;8.80;;;2.80;;
74749;SDS011;63269;53.330;-6.288;2023-02-01T05:29:55;7.30;;;1.92;;
74749;SDS011;63269;53.330;-6.288;2023-02-01T05:32:21;6.40;;;2.25;;
74749;SDS011;63269;53.330;-6.288;2023-02-01T05:34:46;5.68;;;2.13;;
74749;SDS011;63269;53.330;-6.288;2023-02-01T05:37:12;6.35;;;1.70;;
74749;SDS011;63269;53.330;-6.288;2023-02-01T05:39:37;6.57;;;2.30;;
74749;SDS011;63269;53.330;-6.288;2023-02-01T05:42:02;6.80;;;2.03;;
74749;SDS011;63269;53.330;-6.288;2023-02-01T05:44:28;8.25;;;2.15;;
74749;SDS011;63269;53.330;-6.288;2023-02-01T05:46:53;9.50;;;2.55;;
74749;SDS011;63269;53.330;-6.288;2023-02-01T05:49:19;7.82;;;2.20;;
74749;SDS011;63269;53.330;-6.288;2023-02-01T05:51:44;5.97;;;2.33;;
74749;SDS011;63269;53.330;-6.288;2023-02-01T05:54:09;5.40;;;1.80;;
74749;SDS011;63269;53.330;-6.288;2023-02-01T05:56:35;6.28;;;2.03;;
74749;SDS011;63269;53.330;-6.288;2023-02-01T05:59:01;8.13;;;2.22;;
74749;SDS011;63269;53.330;-6.288;2023-02-01T06:01:26;6.00;;;2.17;;
74749;SDS011;63269;53.330;-6.288;2023-02-01T06:03:51;8.82;;;2.30;;
74749;SDS011;63269;53.330;-6.288;2023-02-01T06:06:17;8.55;;;2.42;;
74749;SDS011;63269;53.330;-6.288;2023-02-01T06:08:43;5.97;;;1.88;;
74749;SDS011;63269;53.330;-6.288;2023-02-01T06:11:09;6.90;;;2.40;;
74749;SDS011;63269;53.330;-6.288;2023-02-01T06:13:34;7.40;;;2.30;;
74749;SDS011;63269;53.330;-6.288;2023-02-01T06:16:01;10.25;;;3.05;;
74749;SDS011;63269;53.330;-6.288;2023-02-01T06:18:27;6.95;;;2.33;;
74749;SDS011;63269;53.330;-6.288;2023-02-01T06:20:56;7.15;;;2.10;;
74749;SDS011;63269;53.330;-6.288;2023-02-01T06:25:52;6.30;;;1.85;;
74749;SDS011;63269;53.330;-6.288;2023-02-01T06:28:23;6.28;;;2.08;;
74749;SDS011;63269;53.330;-6.288;2023-02-01T06:30:48;6.32;;;2.28;;
74749;SDS011;63269;53.330;-6.288;2023-02-01T06:33:14;9.43;;;2.35;;
74749;SDS011;63269;53.330;-6.288;2023-02-01T06:35:40;10.00;;;2.90;;
74749;SDS011;63269;53.330;-6.288;2023-02-01T06:38:07;7.50;;;2.15;;
74749;SDS011;63269;53.330;-6.288;2023-02-01T06:40:33;4.88;;;2.15;;
74749;SDS011;63269;53.330;-6.288;2023-02-01T06:42:58;7.97;;;2.35;;
74749;SDS011;63269;53.330;-6.288;2023-02-01T06:45:24;6.07;;;1.88;;
74749;SDS011;63269;53.330;-6.288;2023-02-01T06:47:49;6.22;;;2.30;;
74749;SDS011;63269;53.330;-6.288;2023-02-01T06:50:15;7.72;;;1.92;;
74749;SDS011;63269;53.330;-6.288;2023-02-01T06:52:40;6.88;;;2.05;;
74749;SDS011;63269;53.330;-6.288;2023-02-01T06:55:06;9.48;;;3.35;;
74749;SDS011;63269;53.330;-6.288;2023-02-01T06:57:31;9.55;;;2.20;;
74749;SDS011;63269;53.330;-6.288;2023-02-01T06:59:59;7.20;;;2.15;;
74749;SDS011;63269;53.330;-6.288;2023-02-01T07:02:24;7.85;;;2.55;;
74749;SDS011;63269;53.330;-6.288;2023-02-01T07:04:50;7.78;;;2.90;;
74749;SDS011;63269;53.330;-6.288;2023-02-01T07:07:15;8.68;;;2.53;;
74749;SDS011;63269;53.330;-6.288;2023-02-01T07:09:41;8.68;;;2.42;;
74749;SDS011;63269;53.330;-6.288;2023-02-01T07:12:07;6.45;;;1.85;;
74749;SDS011;63269;53.330;-6.288;2023-02-01T07:14:32;6.93;;;2.25;;
74749;SDS011;63269;53.330;-6.288;2023-02-01T07:16:58;8.45;;;2.75;;
74749;SDS011;63269;53.330;-6.288;2023-02-01T07:19:23;6.68;;;2.15;;
74749;SDS011;63269;53.330;-6.288;2023-02-01T07:21:48;5.35;;;1.83;;
74749;SDS011;63269;53.330;-6.288;2023-02-01T07:24:14;5.55;;;1.92;;
74749;SDS011;63269;53.330;-6.288;2023-02-01T07:26:39;7.50;;;2.65;;
74749;SDS011;63269;53.330;-6.288;2023-02-01T07:29:05;5.25;;;2.13;;
74749;SDS011;63269;53.330;-6.288;2023-02-01T07:31:30;5.38;;;1.95;;
74749;SDS011;63269;53.330;-6.288;2023-02-01T07:33:55;6.25;;;1.88;;
74749;SDS011;63269;53.330;-6.288;2023-02-01T07:36:22;7.53;;;1.80;;
74749;SDS011;63269;53.330;-6.288;2023-02-01T07:38:48;6.93;;;2.22;;
74749;SDS011;63269;53.330;-6.288;2023-02-01T07:41:15;6.90;;;1.98;;
74749;SDS011;63269;53.330;-6.288;2023-02-01T07:43:41;6.50;;;2.70;;
74749;SDS011;63269;53.330;-6.288;2023-02-01T07:46:06;6.32;;;2.45;;
74749;SDS011;63269;53.330;-6.288;2023-02-01T07:48:32;5.75;;;1.83;;
74749;SDS011;63269;53.330;-6.288;2023-02-01T07:51:05;7.63;;;2.53;;
74749;SDS011;63269;53.330;-6.288;2023-02-01T07:53:33;9.15;;;2.45;;
74749;SDS011;63269;53.330;-6.288;2023-02-01T07:55:59;7.15;;;1.90;;
74749;SDS011;63269;53.330;-6.288;2023-02-01T07:58:24;5.43;;;1.85;;
74749;SDS011;63269;53.330;-6.288;2023-02-01T08:00:51;6.78;;;2.35;;
74749;SDS011;63269;53.330;-6.288;2023-02-01T08:03:35;8.07;;;2.38;;
74749;SDS011;63269;53.330;-6.288;2023-02-01T08:06:00;6.95;;;2.05;;
74749;SDS011;63269;53.330;-6.288;2023-02-01T08:08:26;5.60;;;1.95;;
74749;SDS011;63269;53.330;-6.288;2023-02-01T08:10:51;7.05;;;2.10;;
74749;SDS011;63269;53.330;-6.288;2023-02-01T08:13:21;8.57;;;2.50;;
74749;SDS011;63269;53.330;-6.288;2023-02-01T08:15:46;5.40;;;2.10;;
74749;SDS011;63269;53.330;-6.288;2023-02-01T08:18:12;6.93;;;2.05;;
74749;SDS011;63269;53.330;-6.288;2023-02-01T08:20:41;6.80;;;2.17;;
74749;SDS011;63269;53.330;-6.288;2023-02-01T08:23:08;7.78;;;2.50;;
74749;SDS011;63269;53.330;-6.288;2023-02-01T08:25:34;5.10;;;1.95;;
74749;SDS011;63269;53.330;-6.288;2023-02-01T08:28:01;7.70;;;2.50;;
74749;SDS011;63269;53.330;-6.288;2023-02-01T08:30:27;7.10;;;2.35;;
74749;SDS011;63269;53.330;-6.288;2023-02-01T08:32:52;6.03;;;2.22;;
74749;SDS011;63269;53.330;-6.288;2023-02-01T08:35:18;5.78;;;2.10;;
74749;SDS011;63269;53.330;-6.288;2023-02-01T08:37:43;6.30;;;1.85;;
74749;SDS011;63269;53.330;-6.288;2023-02-01T08:40:09;9.50;;;2.60;;
74749;SDS011;63269;53.330;-6.288;2023-02-01T08:42:35;7.53;;;2.65;;
74749;SDS011;63269;53.330;-6.288;2023-02-01T08:45:16;8.55;;;2.30;;
74749;SDS011;63269;53.330;-6.288;2023-02-01T08:47:52;6.60;;;2.40;;
74749;SDS011;63269;53.330;-6.288;2023-02-01T08:50:18;8.63;;;2.53;;
74749;SDS011;63269;53.330;-6.288;2023-02-01T08:52:44;6.82;;;2.33;;
74749;SDS011;63269;53.330;-6.288;2023-02-01T08:55:10;7.97;;;2.38;;
74749;SDS011;63269;53.330;-6.288;2023-02-01T08:57:36;8.18;;;2.55;;
74749;SDS011;63269;53.330;-6.288;2023-02-01T09:00:03;9.55;;;3.70;;
74749;SDS011;63269;53.330;-6.288;2023-02-01T09:02:29;9.38;;;2.72;;
74749;SDS011;63269;53.330;-6.288;2023-02-01T09:04:55;8.27;;;2.55;;
74749;SDS011;63269;53.330;-6.288;2023-02-01T09:07:21;7.78;;;2.63;;
74749;SDS011;63269;53.330;-6.288;2023-02-01T09:09:47;7.70;;;2.70;;
74749;SDS011;63269;53.330;-6.288;2023-02-01T09:12:12;6.43;;;2.65;;
74749;SDS011;63269;53.330;-6.288;2023-02-01T09:14:38;5.78;;;2.15;;
74749;SDS011;63269;53.330;-6.288;2023-02-01T09:17:03;6.47;;;2.50;;
74749;SDS011;63269;53.330;-6.288;2023-02-01T09:19:30;6.15;;;2.28;;
74749;SDS011;63269;53.330;-6.288;2023-02-01T09:21:56;7.60;;;2.10;;
74749;SDS011;63269;53.330;-6.288;2023-02-01T09:24:21;13.73;;;2.85;;
74749;SDS011;63269;53.330;-6.288;2023-02-01T09:26:47;11.10;;;2.92;;
74749;SDS011;63269;53.330;-6.288;2023-02-01T09:29:13;10.07;;;1.92;;
74749;SDS011;63269;53.330;-6.288;2023-02-01T09:31:39;9.90;;;2.55;;
74749;SDS011;63269;53.330;-6.288;2023-02-01T09:34:05;5.60;;;2.17;;
74749;SDS011;63269;53.330;-6.288;2023-02-01T09:36:32;7.78;;;2.75;;
74749;SDS011;63269;53.330;-6.288;2023-02-01T09:38:57;6.63;;;1.83;;
74749;SDS011;63269;53.330;-6.288;2023-02-01T09:47:10;9.32;;;2.30;;
74749;SDS011;63269;53.330;-6.288;2023-02-01T09:49:43;8.85;;;2.53;;
74749;SDS011;63269;53.330;-6.288;2023-02-01T09:52:15;7.70;;;2.85;;
74749;SDS011;63269;53.330;-6.288;2023-02-01T09:54:49;6.45;;;2.58;;
74749;SDS011;63269;53.330;-6.288;2023-02-01T09:57:49;11.23;;;2.67;;
74749;SDS011;63269;53.330;-6.288;2023-02-01T10:00:23;6.88;;;2.17;;
74749;SDS011;63269;53.330;-6.288;2023-02-01T10:02:53;7.75;;;2.25;;
74749;SDS011;63269;53.330;-6.288;2023-02-01T10:05:24;9.20;;;2.50;;
74749;SDS011;63269;53.330;-6.288;2023-02-01T10:28:24;7.47;;;2.35;;
74749;SDS011;63269;53.330;-6.288;2023-02-01T10:30:51;8.15;;;3.40;;
74749;SDS011;63269;53.330;-6.288;2023-02-01T10:33:27;8.35;;;2.97;;
74749;SDS011;63269;53.330;-6.288;2023-02-01T10:36:01;11.20;;;2.70;;
74749;SDS011;63269;53.330;-6.288;2023-02-01T10:38:35;7.53;;;2.35;;
74749;SDS011;63269;53.330;-6.288;2023-02-01T10:41:03;7.15;;;2.63;;
74749;SDS011;63269;53.330;-6.288;2023-02-01T10:43:34;8.35;;;2.30;;
74749;SDS011;63269;53.330;-6.288;2023-02-01T10:46:00;9.48;;;3.00;;
74749;SDS011;63269;53.330;-6.288;2023-02-01T10:48:25;6.85;;;1.77;;
74749;SDS011;63269;53.330;-6.288;2023-02-01T10:50:53;7.10;;;2.25;;
74749;SDS011;63269;53.330;-6.288;2023-02-01T10:53:47;9.30;;;2.08;;
74749;SDS011;63269;53.330;-6.288;2023-02-01T10:56:14;7.38;;;2.63;;
74749;SDS011;63269;53.330;-6.288;2023-02-01T10:58:47;6.75;;;2.58;;
74749;SDS011;63269;53.330;-6.288;2023-02-01T11:01:16;5.80;;;1.90;;
74749;SDS011;63269;53.330;-6.288;2023-02-01T11:03:57;7.40;;;2.33;;
74749;SDS011;63269;53.330;-6.288;2023-02-01T11:06:29;9.27;;;2.55;;
74749;SDS011;63269;53.330;-6.288;2023-02-01T11:11:31;6.47;;;2.20;;
74749;SDS011;63269;53.330;-6.288;2023-02-01T11:14:01;12.05;;;2.53;;
74749;SDS011;63269;53.330;-6.288;2023-02-01T11:16:38;7.40;;;2.50;;
74749;SDS011;63269;53.330;-6.288;2023-02-01T11:19:04;10.50;;;2.80;;
74749;SDS011;63269;53.330;-6.288;2023-02-01T11:21:30;8.32;;;2.25;;
74749;SDS011;63269;53.330;-6.288;2023-02-01T11:24:00;7.70;;;2.42;;
74749;SDS011;63269;53.330;-6.288;2023-02-01T11:26:28;9.27;;;2.80;;
74749;SDS011;63269;53.330;-6.288;2023-02-01T11:29:02;7.57;;;2.58;;
74749;SDS011;63269;53.330;-6.288;2023-02-01T11:31:29;7.43;;;2.97;;
74749;SDS011;63269;53.330;-6.288;2023-02-01T11:33:58;7.70;;;2.90;;
74749;SDS011;63269;53.330;-6.288;2023-02-01T11:36:30;7.47;;;2.08;;
74749;SDS011;63269;53.330;-6.288;2023-02-01T11:41:54;9.02;;;2.50;;
74749;SDS011;63269;53.330;-6.288;2023-02-01T11:44:30;8.63;;;2.28;;
74749;SDS011;63269;53.330;-6.288;2023-02-01T11:49:48;9.05;;;2.60;;
74749;SDS011;63269;53.330;-6.288;2023-02-01T12:03:12;7.40;;;2.20;;
74749;SDS011;63269;53.330;-6.288;2023-02-01T12:05:53;9.55;;;2.80;;
74749;SDS011;63269;53.330;-6.288;2023-02-01T12:16:35;7.72;;;2.67;;
74749;SDS011;63269;53.330;-6.288;2023-02-01T12:43:40;145.13;;;99.45;;
74749;SDS011;63269;53.330;-6.288;2023-02-01T12:46:21;120.82;;;86.72;;
74749;SDS011;63269;53.330;-6.288;2023-02-01T12:51:36;104.10;;;70.72;;
74749;SDS011;63269;53.330;-6.288;2023-02-01T12:59:21;85.00;;;55.72;;
74749;SDS011;63269;53.330;-6.288;2023-02-01T13:04:28;76.85;;;49.42;;
74749;SDS011;63269;53.330;-6.288;2023-02-01T13:07:01;66.20;;;45.30;;
74749;SDS011;63269;53.330;-6.288;2023-02-01T13:09:52;67.60;;;43.70;;
74749;SDS011;63269;53.330;-6.288;2023-02-01T13:12:26;65.10;;;42.33;;
74749;SDS011;63269;53.330;-6.288;2023-02-01T13:14:58;60.90;;;42.72;;
74749;SDS011;63269;53.330;-6.288;2023-02-01T13:17:31;62.22;;;40.65;;
74749;SDS011;63269;53.330;-6.288;2023-02-01T13:20:33;57.33;;;37.63;;
74749;SDS011;63269;53.330;-6.288;2023-02-01T13:25:43;55.17;;;35.40;;
74749;SDS011;63269;53.330;-6.288;2023-02-01T13:28:14;53.53;;;34.47;;
74749;SDS011;63269;53.330;-6.288;2023-02-01T13:36:33;51.05;;;32.05;;
74749;SDS011;63269;53.330;-6.288;2023-02-01T13:42:27;47.33;;;28.27;;
74749;SDS011;63269;53.330;-6.288;2023-02-01T13:44:57;45.22;;;28.08;;
74749;SDS011;63269;53.330;-6.288;2023-02-01T13:47:30;38.88;;;24.60;;
74749;SDS011;63269;53.330;-6.288;2023-02-01T13:50:02;36.90;;;24.63;;
74749;SDS011;63269;53.330;-6.288;2023-02-01T13:52:39;40.92;;;23.35;;
74749;SDS011;63269;53.330;-6.288;2023-02-01T13:57:39;33.33;;;21.63;;
74749;SDS011;63269;53.330;-6.288;2023-02-01T14:00:25;31.40;;;20.90;;
74749;SDS011;63269;53.330;-6.288;2023-02-01T14:13:19;29.70;;;18.17;;
74749;SDS011;63269;53.330;-6.288;2023-02-01T14:23:46;26.35;;;15.13;;
74749;SDS011;63269;53.330;-6.288;2023-02-01T14:26:20;23.35;;;15.15;;
74749;SDS011;63269;53.330;-6.288;2023-02-01T14:29:32;25.40;;;15.25;;
74749;SDS011;63269;53.330;-6.288;2023-02-01T14:37:21;22.92;;;14.18;;
74749;SDS011;63269;53.330;-6.288;2023-02-01T14:39:59;20.15;;;12.88;;
74749;SDS011;63269;53.330;-6.288;2023-02-01T14:47:42;20.55;;;10.82;;
74749;SDS011;63269;53.330;-6.288;2023-02-01T14:56:16;16.40;;;10.20;;
74749;SDS011;63269;53.330;-6.288;2023-02-01T14:58:31;14.65;;;9.77;;
74749;SDS011;63269;53.330;-6.288;2023-02-01T15:00:59;16.25;;;8.98;;
74749;SDS011;63269;53.330;-6.288;2023-02-01T15:08:45;13.57;;;8.63;;
74749;SDS011;63269;53.330;-6.288;2023-02-01T15:11:13;15.70;;;8.23;;
74749;SDS011;63269;53.330;-6.288;2023-02-01T15:13:40;12.85;;;8.00;;
74749;SDS011;63269;53.330;-6.288;2023-02-01T15:16:13;18.73;;;8.27;;
74749;SDS011;63269;53.330;-6.288;2023-02-01T15:18:40;14.00;;;7.18;;
74749;SDS011;63269;53.330;-6.288;2023-02-01T15:21:06;13.82;;;7.40;;
74749;SDS011;63269;53.330;-6.288;2023-02-01T15:23:40;13.73;;;7.03;;
74749;SDS011;63269;53.330;-6.288;2023-02-01T15:26:05;15.02;;;7.45;;
74749;SDS011;63269;53.330;-6.288;2023-02-01T15:28:30;11.82;;;6.85;;
74749;SDS011;63269;53.330;-6.288;2023-02-01T15:30:57;13.73;;;7.00;;
74749;SDS011;63269;53.330;-6.288;2023-02-01T15:33:28;13.15;;;6.65;;
74749;SDS011;63269;53.330;-6.288;2023-02-01T15:35:56;11.95;;;6.18;;
74749;SDS011;63269;53.330;-6.288;2023-02-01T15:38:37;12.95;;;6.00;;
74749;SDS011;63269;53.330;-6.288;2023-02-01T15:43:42;11.70;;;5.28;;
74749;SDS011;63269;53.330;-6.288;2023-02-01T15:46:15;11.98;;;5.70;;
74749;SDS011;63269;53.330;-6.288;2023-02-01T15:48:56;10.55;;;4.93;;
74749;SDS011;63269;53.330;-6.288;2023-02-01T15:51:22;9.98;;;5.40;;
74749;SDS011;63269;53.330;-6.288;2023-02-01T15:53:57;8.55;;;4.88;;
74749;SDS011;63269;53.330;-6.288;2023-02-01T15:56:32;7.53;;;4.28;;
74749;SDS011;63269;53.330;-6.288;2023-02-01T15:59:00;8.60;;;4.00;;
74749;SDS011;63269;53.330;-6.288;2023-02-01T16:01:27;7.63;;;4.28;;
74749;SDS011;63269;53.330;-6.288;2023-02-01T16:04:28;8.90;;;4.20;;
74749;SDS011;63269;53.330;-6.288;2023-02-01T16:09:19;9.15;;;4.38;;
74749;SDS011;63269;53.330;-6.288;2023-02-01T16:11:57;9.80;;;4.95;;
74749;SDS011;63269;53.330;-6.288;2023-02-01T16:14:25;10.65;;;4.10;;
74749;SDS011;63269;53.330;-6.288;2023-02-01T16:16:52;7.80;;;4.35;;
74749;SDS011;63269;53.330;-6.288;2023-02-01T16:19:19;7.05;;;3.42;;
74749;SDS011;63269;53.330;-6.288;2023-02-01T16:21:44;7.88;;;3.88;;
74749;SDS011;63269;53.330;-6.288;2023-02-01T16:24:10;6.38;;;3.05;;
74749;SDS011;63269;53.330;-6.288;2023-02-01T16:26:36;8.98;;;3.72;;
74749;SDS011;63269;53.330;-6.288;2023-02-01T16:29:03;8.80;;;4.15;;
74749;SDS011;63269;53.330;-6.288;2023-02-01T16:31:31;8.23;;;3.38;;
74749;SDS011;63269;53.330;-6.288;2023-02-01T16:34:00;8.90;;;3.53;;
74749;SDS011;63269;53.330;-6.288;2023-02-01T16:36:26;7.78;;;3.35;;
74749;SDS011;63269;53.330;-6.288;2023-02-01T16:38:53;6.45;;;2.97;;
74749;SDS011;63269;53.330;-6.288;2023-02-01T16:41:19;6.78;;;2.95;;
74749;SDS011;63269;53.330;-6.288;2023-02-01T16:43:50;7.25;;;2.80;;
74749;SDS011;63269;53.330;-6.288;2023-02-01T16:46:18;5.97;;;2.67;;
74749;SDS011;63269;53.330;-6.288;2023-02-01T16:48:51;6.95;;;2.70;;
74749;SDS011;63269;53.330;-6.288;2023-02-01T16:51:21;8.45;;;3.13;;
74749;SDS011;63269;53.330;-6.288;2023-02-01T16:53:48;8.43;;;3.40;;
74749;SDS011;63269;53.330;-6.288;2023-02-01T16:56:17;6.55;;;2.65;;
74749;SDS011;63269;53.330;-6.288;2023-02-01T16:58:44;5.85;;;2.38;;
74749;SDS011;63269;53.330;-6.288;2023-02-01T17:01:10;7.28;;;3.00;;
74749;SDS011;63269;53.330;-6.288;2023-02-01T17:03:37;5.63;;;2.63;;
74749;SDS011;63269;53.330;-6.288;2023-02-01T17:06:03;6.93;;;2.40;;
74749;SDS011;63269;53.330;-6.288;2023-02-01T17:08:31;5.30;;;2.50;;
74749;SDS011;63269;53.330;-6.288;2023-02-01T17:10:58;6.10;;;2.53;;
74749;SDS011;63269;53.330;-6.288;2023-02-01T17:13:24;6.60;;;2.92;;
74749;SDS011;63269;53.330;-6.288;2023-02-01T17:16:05;5.50;;;2.13;;
74749;SDS011;63269;53.330;-6.288;2023-02-01T17:21:22;7.13;;;2.42;;
74749;SDS011;63269;53.330;-6.288;2023-02-01T17:23:48;6.82;;;2.70;;
74749;SDS011;63269;53.330;-6.288;2023-02-01T17:26:14;7.05;;;2.50;;
74749;SDS011;63269;53.330;-6.288;2023-02-01T17:28:39;6.50;;;3.33;;
74749;SDS011;63269;53.330;-6.288;2023-02-01T17:31:05;5.53;;;2.45;;
74749;SDS011;63269;53.330;-6.288;2023-02-01T17:33:32;7.07;;;2.63;;
74749;SDS011;63269;53.330;-6.288;2023-02-01T17:35:59;5.70;;;2.55;;
74749;SDS011;63269;53.330;-6.288;2023-02-01T17:38:25;5.32;;;2.35;;
74749;SDS011;63269;53.330;-6.288;2023-02-01T17:40:51;8.55;;;3.20;;
74749;SDS011;63269;53.330;-6.288;2023-02-01T17:43:22;5.97;;;2.25;;
74749;SDS011;63269;53.330;-6.288;2023-02-01T17:45:51;6.60;;;2.22;;
74749;SDS011;63269;53.330;-6.288;2023-02-01T17:48:19;5.72;;;3.33;;
74749;SDS011;63269;53.330;-6.288;2023-02-01T17:50:46;4.90;;;1.95;;
74749;SDS011;63269;53.330;-6.288;2023-02-01T17:53:18;4.20;;;1.92;;